x

South Santa Rosa Is. Ca (46069) Wave Buoy

6:50pm - Sun 20th Aug 2017 All times are PDT. -7 hours from GMT.

  • Sig Wave height 4.6ft
  • Swell Direction
  • Peak Period 10s
  • Average Period 9s
  • Wind
    4mph, 4mph gusts
  • Sea Temp 65°f
  • Air Temp 64°f
  • Sea Pressure 1011.8mb
  • South Santa Rosa Is. Ca
  • South Santa Rosa Is. Ca

More Historic Weather Station data

Upgrade to MSW Pro to gain access to the past 30 days of data for over 8000 Wavebouys and Weather Stations around the globe.

Join

Comparision Forecast

View Surf forecast
   
Sun 08/20 6:50pm 4.5ft 10s 9s 4 4 mph 1011.8mb 65f 64f
5:50pm 4.5ft 10s 9s 2 4 mph 1012mb 65f 63f
3:50pm 5ft 10s 9s 4 4 mph 1012.6mb 65f 64f
2:50pm 4.5ft 14s 8s 4 7 mph 1013.2mb 64f 63f
1:50pm 4.5ft 10s 9s 4 7 mph 1013.7mb 64f 63f
12:50pm 5ft 10s 9s 7 7 mph 1014mb 64f 63f
11:50am 4.5ft 14s 9s 4 7 mph 1014.2mb 64f 63f
10:50am 4.5ft 10s 9s 7 9 mph 1014.2mb 64f 63f
9:50am 5ft 14s 9s 7 9 mph 1014.1mb 64f 62f
8:50am 5ft 10s 9s 7 9 mph 1014mb 64f 62f
7:50am 6ft 11s 9s 4 7 mph 1013.7mb 64f 62f
6:50am 6ft 10s 9s 4 9 mph 1013.4mb 64f 62f
5:50am 5.5ft 11s 9s 4 9 mph 1013mb 64f 62f
4:50am 5ft 10s 9s 2 4 mph 1013.1mb 64f 62f
3:50am 5ft 10s 9s 2 7 mph 1012.9mb 65f 63f
2:50am 5ft 10s 9s 2 4 mph 1013.1mb 65f 63f
1:50am 4.5ft 15s 9s 4 4 mph 1013.2mb 65f 63f
12:50am 5ft 15s 9s 4 7 mph 1013.6mb 64f 63f
Sat 08/19 11:50pm 5ft 10s 9s 4 4 mph 1013.6mb 64f 63f
9:50pm 5ft 10s 9s 9 9 mph 1013.2mb 65f 63f
8:50pm 5ft 15s 9s 9 11 mph 1013mb 65f 63f
7:50pm 4.5ft 15s 9s 9 13 mph 1012.6mb 65f 63f
6:50pm 4.5ft 15s 9s 9 13 mph 1012.3mb 65f 63f
5:50pm 5ft 11s 9s 9 11 mph 1012.4mb 65f 63f
4:50pm 5ft 15s 9s 9 11 mph 1013mb 65f 63f
3:50pm 5ft 16s 9s 9 11 mph 1013.5mb 65f 63f
2:50pm 5ft 15s 10s 9 11 mph 1014mb 65f 63f
1:50pm 5ft 15s 9s 7 9 mph 1014.5mb 65f 63f
12:50pm 5ft 15s 10s 4 7 mph 1014.8mb 65f 63f
11:50am 4.5ft 15s 9s 7 7 mph 1015.1mb 64f 63f
10:50am 5ft 15s 9s 7 9 mph 1015.2mb 64f 62f
9:50am 5ft 15s 8s 7 9 mph 1015.2mb 64f 62f
8:50am 5ft 16s 8s 9 11 mph 1014.9mb 64f 62f
7:50am 4.5ft 15s 8s 7 9 mph 1014.7mb 64f 62f
6:50am 5ft 16s 8s 9 11 mph 1014.5mb 63f 62f
5:50am 5ft 16s 8s 9 13 mph 1014.1mb 64f 62f
4:50am 5ft 16s 7s 11 13 mph 1013.8mb 64f 61f
3:50am 5ft 16s 7s 11 13 mph 1013.8mb 64f 62f
2:50am 5ft 16s 7s 13 18 mph 1013.8mb 64f 62f
12:50am 5ft 15s 7s 16 18 mph 1014.3mb 64f 62f
Fri 08/18 11:50pm 5.5ft 16s 7s 16 18 mph 1014.5mb 64f 62f
10:50pm 5ft 16s 6s 16 20 mph 1014.6mb 63f 62f
9:50pm 5ft 16s 7s 16 18 mph 1014.6mb 64f 62f
8:50pm 5ft 9s 6s 16 20 mph 1014.2mb 64f 62f
7:50pm 5ft 16s 7s 18 20 mph 1014mb 64f 62f
6:50pm 4.5ft 9s 7s 16 20 mph 1013.8mb 64f 62f
5:50pm 5ft 16s 7s 16 18 mph 1014.1mb 64f 62f
3:50pm 5ft 16s 8s 13 16 mph 1015.5mb 64f 63f
2:50pm 5ft 10s 8s 16 18 mph 1015.9mb 64f 63f
1:50pm 5ft 16s 8s 13 16 mph 1016.2mb 64f 63f
12:50pm 5ft 16s 9s 13 16 mph 1016.6mb 64f 62f
11:50am 4.5ft 16s 8s 11 13 mph 1016.9mb 63f 62f
10:50am 5ft 16s 8s 11 13 mph 1016.8mb 63f 62f
9:50am 5ft 16s 8s 11 13 mph 1016.8mb 63f 62f
8:50am 5ft 16s 7s 13 16 mph 1016.4mb 63f 62f
7:50am 5ft 14s 7s 13 18 mph 1016.1mb 63f 61f
6:50am 5ft 16s 7s 13 18 mph 1015.7mb 63f 62f
5:50am 5ft 16s 7s 13 18 mph 1015.2mb 63f 62f
4:50am 5.5ft 16s 7s 16 18 mph 1014.8mb 63f 62f
3:50am 5ft 15s 7s 16 18 mph 1015mb 63f 62f
2:50am 5ft 16s 7s 16 22 mph 1015mb 63f 62f
1:50am 5ft 10s 7s 18 20 mph 1015.3mb 63f 62f
12:50am 5ft 10s 7s 16 20 mph 1016mb 63f 62f
Thu 08/17 11:50pm 5ft 15s 8s 13 18 mph 1016mb 63f 62f
10:50pm 5ft 15s 7s 13 16 mph 1016.1mb 63f 62f
9:50pm 5ft 16s 7s 18 20 mph 1015.8mb 63f 62f
8:50pm 5.5ft 16s 8s 16 18 mph 1015.5mb 63f 62f
7:50pm 5ft 10s 7s 16 20 mph 1015mb 64f 63f
6:50pm 5ft 10s 7s 16 20 mph 1014.9mb 64f 63f
5:50pm 5ft 16s 7s 16 18 mph 1015mb 64f 63f
4:50pm 5ft 10s 7s 16 18 mph 1015.4mb 64f 63f
3:50pm 5ft 10s 7s 16 18 mph 1015.5mb 64f 63f
2:50pm 5ft 16s 8s 13 16 mph 1016.2mb 64f 62f
1:50pm 5.5ft 15s 8s 13 16 mph 1016.5mb 64f 62f
12:50pm 5ft 15s 8s 11 16 mph 1017.1mb 63f 62f
11:50am 5ft 15s 8s 13 16 mph 1017.3mb 63f 62f
10:50am 5ft 15s 8s 13 16 mph 1017.2mb 63f 62f
9:50am 5ft 15s 8s 11 16 mph 1017.1mb 63f 61f
8:50am 4.5ft 16s 7s 11 13 mph 1016.8mb 63f 61f
7:50am 5ft 15s 7s 16 18 mph 1016.3mb 63f 61f
6:50am 5ft 16s 7s 16 18 mph 1015.7mb 63f 61f
5:50am 5ft 16s 6s 18 20 mph 1015mb 63f 61f
4:50am 5ft 15s 6s 18 20 mph 1014.7mb 63f 62f
3:50am 5ft 16s 6s 18 20 mph 1014.7mb 63f 62f
2:50am 5ft 16s 6s 18 20 mph 1014.6mb 63f 62f